NO-0070 weather

Gulli Airstrip
Nes, Akershus, Norway

Public forecast

Using degrees Celsius for public forecast. Weather courtesy of forecast.io.

Closest aviation weather report (METAR) to Gulli Airstrip

Closest report is Oslo Gardermoen Airport, 11.1 nm (20.6 km) WNW. Retrieved 2020/06/01 05:20 UTC (20 minutes ago):

ENGM 010520Z 02003KT CAVOK 14/07 Q1030 NOSIG

Closest aviation forecast (TAF) to Gulli Airstrip

Closest forecast is Oslo Gardermoen Airport, 11.1 nm (20.6 km) WNW. Retrieved 2020-06-01 00:00 UTC (6 hours ago):

TAF ENGM 312300Z 0100/0124 VRB03KT CAVOK BECMG 0112/0114 25010KT BECMG 0119/0121 01005KT